CheckWX is a tool to help pilots better visualize weather data.  It is not intended as a substitute for an official pre-flight weather briefing.

15:27:23 UTC

PAAQ METAR
Palmer Buddy Woods Municipal Airport
Palmer, Alaska, USA
Current

34 mins ago

PAAQ 171453Z AUTO 00000KT 10SM CLR M03/M04 A2904 RMK AO2 SLP838 T10281039 58001 TSNO
Observed
Oct-17 @ 14:53 UTC
Visibility
10 SM
Flight Rules
VFR
Cloud Levels
  • Clear skies
Temperature
-3°C / 27°F
Dewpoint
-4°C / 25°F
Humidity
93%
Altimeter
29.04" Hg
Pressure
983.42 hPa
Previous

2 hours ago

PAAQ 171353Z AUTO 00000KT 10SM SCT110 M01/M03 A2904 RMK AO2 SLP838 T10111033 TSNO
Observed
Oct-17 @ 13:53 UTC
Visibility
10 SM
Flight Rules
VFR
Cloud Levels
  • Scattered at 11,000' AGL
Temperature
-1°C / 30°F
Dewpoint
-3°C / 27°F
Humidity
86%
Altimeter
29.04" Hg
Pressure
983.42 hPa
Previous

3 hours ago

PAAQ 171253Z AUTO 00000KT 10SM SCT100 M01/M03 A2904 RMK AO2 SLP838 T10111033 TSNO
Observed
Oct-17 @ 12:53 UTC
Visibility
10 SM
Flight Rules
VFR
Cloud Levels
  • Scattered at 10,000' AGL
Temperature
-1°C / 30°F
Dewpoint
-3°C / 27°F
Humidity
86%
Altimeter
29.04" Hg
Pressure
983.42 hPa